createdAt,value
2023-04-05T00:02:04.476Z,101133.06
2023-04-05T00:04:57.794Z,101134.75
2023-04-05T00:07:48.466Z,101134.75
2023-04-05T00:10:38.411Z,101134.03
2023-04-05T00:13:27.766Z,101125.84
2023-04-05T00:16:17.788Z,101117.34
2023-04-05T00:19:07.261Z,101118.38
2023-04-05T00:21:57.453Z,101112.38
2023-04-05T00:24:50.370Z,101113.41
2023-04-05T00:27:39.339Z,101120.41
2023-04-05T00:30:30.139Z,101110.53
2023-04-05T00:33:19.378Z,101104.72
2023-04-05T00:36:13.403Z,101113.41
2023-04-05T00:39:02.736Z,101101.88
2023-04-05T00:41:53.451Z,101106.38
2023-04-05T00:44:42.518Z,101108.75
2023-04-05T00:47:31.867Z,101105.06
2023-04-05T00:50:21.736Z,101098.09
2023-04-05T00:53:11.463Z,101104.81
2023-04-05T00:56:01.508Z,101105.81
2023-04-05T00:58:53.422Z,101103.41
2023-04-05T01:01:43.610Z,101102.13
2023-04-05T01:04:33.402Z,101102.31
2023-04-05T01:07:27.942Z,101106.00
2023-04-05T01:10:19.321Z,101098.81
2023-04-05T01:13:08.922Z,101100.09
2023-04-05T01:15:59.614Z,101098.94
2023-04-05T01:18:49.051Z,101098.44
2023-04-05T01:21:55.995Z,101091.78
2023-04-05T01:24:57.823Z,101088.16
2023-04-05T01:28:05.267Z,101094.47
2023-04-05T01:30:59.727Z,101083.50
2023-04-05T01:33:55.926Z,101085.75
2023-04-05T01:36:48.585Z,101076.06
2023-04-05T01:39:38.379Z,101075.06
2023-04-05T01:42:28.153Z,101077.47
2023-04-05T01:45:19.287Z,101077.91
2023-04-05T01:48:11.062Z,101075.06
2023-04-05T01:51:00.136Z,101075.06
2023-04-05T01:53:49.274Z,101072.22
2023-04-05T01:56:38.568Z,101070.56
2023-04-05T01:59:29.019Z,101066.78
2023-04-05T02:02:18.244Z,101069.25
2023-04-05T02:05:10.282Z,101063.34
2023-04-05T02:07:59.239Z,101066.41
2023-04-05T02:10:49.275Z,101067.69
2023-04-05T02:13:38.527Z,101078.28
2023-04-05T02:16:28.017Z,101074.22
2023-04-05T02:19:23.339Z,101071.75
2023-04-05T02:22:14.340Z,101072.34
2023-04-05T02:25:06.377Z,101069.38
2023-04-05T02:27:55.795Z,101066.41
2023-04-05T02:30:45.507Z,101060.75
2023-04-05T02:33:35.221Z,101059.34
2023-04-05T02:36:24.424Z,101063.44
2023-04-05T02:39:15.460Z,101057.84
2023-04-05T02:42:07.429Z,101060.59
2023-04-05T02:44:56.685Z,101058.38
2023-04-05T02:47:45.982Z,101053.69
2023-04-05T02:50:35.219Z,101059.88
2023-04-05T02:53:24.329Z,101056.00
2023-04-05T02:56:15.039Z,101060.97
2023-04-05T02:59:05.196Z,101054.50
2023-04-05T03:01:54.600Z,101051.84
2023-04-05T03:04:45.217Z,101051.84
2023-04-05T03:07:35.705Z,101050.19
2023-04-05T03:10:26.321Z,101051.50
2023-04-05T03:13:17.076Z,101046.50
2023-04-05T03:16:06.889Z,101055.03
2023-04-05T03:18:56.196Z,101044.47
2023-04-05T03:21:45.379Z,101049.22
2023-04-05T03:24:35.985Z,101042.47
2023-04-05T03:27:26.203Z,101037.88
2023-04-05T03:30:17.202Z,101041.25
2023-04-05T03:33:06.969Z,101036.19
2023-04-05T03:35:56.180Z,101038.50
2023-04-05T03:38:48.008Z,101034.16
2023-04-05T03:41:36.925Z,101039.81
2023-04-05T03:44:27.153Z,101038.53
2023-04-05T03:47:18.392Z,101038.53
2023-04-05T03:50:09.537Z,101038.16
2023-04-05T03:53:01.469Z,101039.50
2023-04-05T03:55:54.278Z,101039.91
2023-04-05T03:58:45.117Z,101043.19
2023-04-05T04:01:37.343Z,101039.81
2023-04-05T04:04:30.755Z,101044.59
2023-04-05T04:07:25.066Z,101049.03
2023-04-05T04:10:18.050Z,101048.53
2023-04-05T04:13:06.794Z,101047.19
2023-04-05T04:15:56.046Z,101049.81
2023-04-05T04:18:46.756Z,101055.53
2023-04-05T04:21:41.829Z,101049.63
2023-04-05T04:24:32.597Z,101037.75
2023-04-05T04:27:21.446Z,101042.38
2023-04-05T04:30:11.261Z,101035.16
2023-04-05T04:33:06.636Z,101042.25
2023-04-05T04:35:56.931Z,101046.69
2023-04-05T04:38:51.393Z,101047.50
2023-04-05T04:41:44.780Z,101043.19
2023-04-05T04:44:33.578Z,101043.56
2023-04-05T04:47:23.223Z,101038.22
2023-04-05T04:50:12.922Z,101034.91
2023-04-05T04:53:02.346Z,101045.31
2023-04-05T04:55:52.783Z,101036.00
2023-04-05T04:58:41.769Z,101036.81
2023-04-05T05:01:30.662Z,101038.59
2023-04-05T05:04:19.421Z,101041.81
2023-04-05T05:07:08.011Z,101045.31
2023-04-05T05:09:56.991Z,101047.81
2023-04-05T05:12:49.902Z,101052.75
2023-04-05T05:15:40.971Z,101049.06
2023-04-05T05:18:29.565Z,101040.16
2023-04-05T05:21:18.215Z,101042.06
2023-04-05T05:24:09.974Z,101047.88
2023-04-05T05:26:58.567Z,101042.44
2023-04-05T05:29:48.823Z,101044.94
2023-04-05T05:32:37.515Z,101045.16
2023-04-05T05:35:26.183Z,101044.19
2023-04-05T05:38:15.044Z,101041.63
2023-04-05T05:41:03.704Z,101049.44
2023-04-05T05:43:53.739Z,101041.44
2023-04-05T05:46:43.759Z,101050.81
2023-04-05T05:49:32.363Z,101037.84
2023-04-05T05:52:21.162Z,101040.88
2023-04-05T05:55:10.403Z,101042.16
2023-04-05T05:57:59.245Z,101031.31
2023-04-05T06:00:50.486Z,101032.69
2023-04-05T06:03:40.873Z,101028.63
2023-04-05T06:06:30.087Z,101037.66
2023-04-05T06:09:18.706Z,101033.91
2023-04-05T06:12:10.771Z,101033.34
2023-04-05T06:14:59.684Z,101041.81
2023-04-05T06:17:48.383Z,101040.91
2023-04-05T06:20:41.387Z,101033.06
2023-04-05T06:23:30.698Z,101043.66
2023-04-05T06:26:20.711Z,101043.19
2023-04-05T06:29:10.319Z,101050.75
2023-04-05T06:31:58.954Z,101041.16
2023-04-05T06:34:48.994Z,101037.84
2023-04-05T06:37:39.307Z,101044.84
2023-04-05T06:40:28.040Z,101031.31
2023-04-05T06:43:16.778Z,101035.47
2023-04-05T06:46:08.973Z,101034.00
2023-04-05T06:48:57.618Z,101031.41
2023-04-05T06:51:46.294Z,101034.81
2023-04-05T06:54:36.492Z,101036.75
2023-04-05T06:57:25.071Z,101033.44
2023-04-05T07:00:17.374Z,101034.25
2023-04-05T07:03:06.543Z,101034.06
2023-04-05T07:05:56.937Z,101036.75
2023-04-05T07:08:45.889Z,101032.03
2023-04-05T07:11:36.357Z,101031.88
2023-04-05T07:14:25.057Z,101034.00
2023-04-05T07:17:13.797Z,101035.72
2023-04-05T07:20:02.376Z,101034.16
2023-04-05T07:22:51.000Z,101024.19
2023-04-05T07:25:41.498Z,101025.78
2023-04-05T07:28:32.148Z,101025.13
2023-04-05T07:31:20.857Z,101023.47
2023-04-05T07:34:09.615Z,101022.06
2023-04-05T07:36:58.270Z,101019.41
2023-04-05T07:39:46.857Z,101026.69
2023-04-05T07:42:35.490Z,101023.91
2023-04-05T07:45:25.539Z,101026.50
2023-04-05T07:48:14.217Z,101026.97
2023-04-05T07:51:07.213Z,101024.94
2023-04-05T07:53:56.169Z,101026.19
2023-04-05T07:56:44.922Z,101015.78
2023-04-05T07:59:33.891Z,101013.38
2023-04-05T08:02:23.853Z,101010.63
2023-04-05T08:05:12.545Z,101012.72
2023-04-05T08:08:01.377Z,101015.56
2023-04-05T08:10:50.048Z,101007.38
2023-04-05T08:13:40.566Z,101004.53
2023-04-05T08:16:29.532Z,101008.84
2023-04-05T08:19:19.524Z,101006.13
2023-04-05T08:22:08.438Z,101010.22
2023-04-05T08:24:57.178Z,101005.47
2023-04-05T08:27:46.165Z,101005.41
2023-04-05T08:30:34.759Z,101011.16
2023-04-05T08:33:23.477Z,101008.28
2023-04-05T08:36:13.515Z,101003.31
2023-04-05T08:39:02.218Z,100998.34
2023-04-05T08:41:58.146Z,100995.78
2023-04-05T08:44:47.291Z,100996.84
2023-04-05T08:47:37.414Z,101000.97
2023-04-05T08:50:27.358Z,100998.75
2023-04-05T08:53:17.399Z,100996.75
2023-04-05T08:56:06.493Z,101005.78
2023-04-05T08:58:59.751Z,101002.72
2023-04-05T09:01:49.592Z,101000.78
2023-04-05T09:04:40.446Z,101003.19
2023-04-05T09:07:31.322Z,100999.88
2023-04-05T09:10:23.310Z,100996.53
2023-04-05T09:13:12.689Z,100998.19
2023-04-05T09:16:03.298Z,100999.94
2023-04-05T09:18:51.907Z,101001.50
2023-04-05T09:22:05.380Z,100991.94
2023-04-05T09:24:53.966Z,101003.28
2023-04-05T09:27:57.502Z,100997.19
2023-04-05T09:30:48.121Z,100997.00
2023-04-05T09:33:36.860Z,100993.69
2023-04-05T09:36:25.707Z,100995.41
2023-04-05T09:39:16.176Z,101005.34
2023-04-05T09:42:09.652Z,101000.38
2023-04-05T09:45:02.379Z,100996.44
2023-04-05T09:47:58.192Z,100993.00
2023-04-05T09:50:47.023Z,100993.91
2023-04-05T09:53:35.691Z,100993.91
2023-04-05T09:56:24.291Z,100990.06
2023-04-05T09:59:14.072Z,100989.53
2023-04-05T10:02:04.138Z,100990.44
2023-04-05T10:04:53.254Z,100985.22
2023-04-05T10:07:42.217Z,100980.88
2023-04-05T10:10:31.029Z,100984.81
2023-04-05T10:13:20.583Z,100984.59
2023-04-05T10:16:11.183Z,100984.66
2023-04-05T10:19:05.948Z,100983.81
2023-04-05T10:21:55.995Z,100976.41
2023-04-05T10:24:50.595Z,100976.41
2023-04-05T10:27:49.381Z,100972.00
2023-04-05T10:30:49.860Z,100965.72
2023-04-05T10:33:42.818Z,100971.03
2023-04-05T10:36:40.149Z,100968.53
2023-04-05T10:39:30.852Z,100958.94
2023-04-05T10:42:22.630Z,100950.28
2023-04-05T10:45:15.529Z,100958.13
2023-04-05T10:48:11.283Z,100960.50
2023-04-05T10:51:00.316Z,100957.41
2023-04-05T10:53:50.924Z,100954.59
2023-04-05T10:56:39.812Z,100955.69
2023-04-05T10:59:29.704Z,100955.22
2023-04-05T11:02:20.554Z,100949.88
2023-04-05T11:05:34.110Z,100960.91
2023-04-05T11:08:22.921Z,100960.91
2023-04-05T11:11:13.612Z,100955.97
2023-04-05T11:14:02.263Z,100950.41
2023-04-05T11:16:55.390Z,100952.63
2023-04-05T11:19:52.369Z,100957.97
2023-04-05T11:22:41.144Z,100946.13
2023-04-05T11:25:29.993Z,100955.16
2023-04-05T11:28:28.662Z,100944.97
2023-04-05T11:31:19.330Z,100946.13
2023-04-05T11:34:11.138Z,100943.59
2023-04-05T11:36:59.722Z,100944.06
2023-04-05T11:39:48.675Z,100940.03
2023-04-05T11:42:37.827Z,100939.78
2023-04-05T11:45:29.332Z,100941.56
2023-04-05T11:48:19.958Z,100946.91
2023-04-05T11:51:10.551Z,100939.63
2023-04-05T11:53:59.157Z,100936.06
2023-04-05T11:56:53.062Z,100943.31
2023-04-05T11:59:41.724Z,100938.88
2023-04-05T12:02:36.067Z,100936.59
2023-04-05T12:05:24.832Z,100931.25
2023-04-05T12:08:13.476Z,100937.47
2023-04-05T12:11:02.237Z,100929.22
2023-04-05T12:13:50.949Z,100927.78
2023-04-05T12:16:50.415Z,100935.88
2023-04-05T12:19:40.589Z,100935.88
2023-04-05T12:22:29.253Z,100932.41
2023-04-05T12:25:18.320Z,100931.94
2023-04-05T12:28:09.021Z,100927.41
2023-04-05T12:30:58.878Z,100915.97
2023-04-05T12:33:47.519Z,100921.06
2023-04-05T12:36:37.597Z,100919.84
2023-04-05T12:39:31.991Z,100915.31
2023-04-05T12:42:21.112Z,100907.75
2023-04-05T12:45:13.433Z,100900.66
2023-04-05T12:48:02.173Z,100905.03
2023-04-05T12:50:54.576Z,100900.94
2023-04-05T12:53:48.425Z,100894.31
2023-04-05T12:56:37.444Z,100898.88
2023-04-05T12:59:26.338Z,100898.13
2023-04-05T13:02:15.060Z,100892.00
2023-04-05T13:05:03.690Z,100891.38
2023-04-05T13:07:52.680Z,100892.06
2023-04-05T13:10:42.802Z,100900.25
2023-04-05T13:13:31.771Z,100897.97
2023-04-05T13:16:20.377Z,100900.03
2023-04-05T13:19:08.958Z,100892.84
2023-04-05T13:21:57.602Z,100892.53
2023-04-05T13:24:48.608Z,100886.19
2023-04-05T13:27:38.581Z,100884.50
2023-04-05T13:30:27.658Z,100885.66
2023-04-05T13:33:16.315Z,100880.50
2023-04-05T13:36:05.116Z,100884.63
2023-04-05T13:38:53.821Z,100877.53
2023-04-05T13:41:42.444Z,100879.09
2023-04-05T13:44:32.386Z,100876.59
2023-04-05T13:47:21.128Z,100871.47
2023-04-05T13:50:10.390Z,100879.22
2023-04-05T13:52:59.106Z,100876.53
2023-04-05T13:55:47.749Z,100871.13
2023-04-05T13:58:36.505Z,100874.88
2023-04-05T14:01:26.638Z,100874.94
2023-04-05T14:04:15.492Z,100874.06
2023-04-05T14:07:04.298Z,100868.97
2023-04-05T14:09:52.968Z,100872.44
2023-04-05T14:12:41.543Z,100872.09
2023-04-05T14:15:31.003Z,100868.63
2023-04-05T14:18:21.163Z,100861.84
2023-04-05T14:21:10.023Z,100861.53
2023-04-05T14:23:58.735Z,100855.72
2023-04-05T14:26:49.860Z,100850.38
2023-04-05T14:29:38.705Z,100846.69
2023-04-05T14:32:27.677Z,100855.09
2023-04-05T14:35:17.960Z,100843.38
2023-04-05T14:38:06.709Z,100842.81
2023-04-05T14:40:55.643Z,100842.75
2023-04-05T14:43:44.445Z,100841.88
2023-04-05T14:46:33.238Z,100844.78
2023-04-05T14:49:21.988Z,100839.06
2023-04-05T14:52:12.215Z,100839.81
2023-04-05T14:55:01.190Z,100834.41
2023-04-05T14:57:50.026Z,100838.78
2023-04-05T15:00:38.973Z,100837.50
2023-04-05T15:03:27.998Z,100832.06
2023-04-05T15:06:17.527Z,100821.75
2023-04-05T15:09:07.630Z,100827.88
2023-04-05T15:11:56.697Z,100827.50
2023-04-05T15:14:45.770Z,100826.19
2023-04-05T15:17:34.751Z,100838.41
2023-04-05T15:20:23.501Z,100830.00
2023-04-05T15:23:12.336Z,100821.75
2023-04-05T15:26:02.501Z,100823.91
2023-04-05T15:28:51.214Z,100815.75
2023-04-05T15:31:41.432Z,100815.75
2023-04-05T15:34:31.448Z,100810.41
2023-04-05T15:37:20.309Z,100816.13
2023-04-05T15:40:10.359Z,100806.72
2023-04-05T15:43:00.797Z,100811.66
2023-04-05T15:45:49.657Z,100811.13
2023-04-05T15:48:38.367Z,100811.03
2023-04-05T15:51:27.253Z,100815.22
2023-04-05T15:54:18.851Z,100811.97
2023-04-05T15:57:07.943Z,100811.66
2023-04-05T15:59:58.097Z,100812.53
2023-04-05T16:02:49.934Z,100813.94
2023-04-05T16:05:38.902Z,100814.72
2023-04-05T16:08:27.634Z,100819.91
2023-04-05T16:11:16.435Z,100813.81
2023-04-05T16:14:05.477Z,100815.44
2023-04-05T16:16:55.691Z,100809.38
2023-04-05T16:19:44.508Z,100814.66
2023-04-05T16:22:33.214Z,100805.63
2023-04-05T16:25:22.631Z,100812.63
2023-04-05T16:28:12.285Z,100816.66
2023-04-05T16:31:01.145Z,100815.97
2023-04-05T16:33:52.654Z,100812.41
2023-04-05T16:36:41.900Z,100819.19
2023-04-05T16:39:30.896Z,100814.41
2023-04-05T16:42:19.668Z,100820.22
2023-04-05T16:45:09.213Z,100813.66
2023-04-05T16:47:58.060Z,100819.00
2023-04-05T16:50:48.530Z,100816.13
2023-04-05T16:53:37.365Z,100812.41
2023-04-05T16:56:26.288Z,100817.72
2023-04-05T16:59:15.165Z,100813.50
2023-04-05T17:02:04.009Z,100821.75
2023-04-05T17:04:54.131Z,100813.84
2023-04-05T17:07:44.321Z,100818.31
2023-04-05T17:10:33.032Z,100819.38
2023-04-05T17:13:21.858Z,100829.22
2023-04-05T17:16:10.643Z,100825.56
2023-04-05T17:18:59.415Z,100828.09
2023-04-05T17:21:48.773Z,100835.09
2023-04-05T17:24:39.537Z,100828.38
2023-04-05T17:27:28.288Z,100838.84
2023-04-05T17:30:17.728Z,100830.66
2023-04-05T17:33:06.609Z,100837.41
2023-04-05T17:35:55.451Z,100838.03
2023-04-05T17:38:44.403Z,100838.78
2023-04-05T17:41:34.696Z,100837.13
2023-04-05T17:44:23.478Z,100839.16
2023-04-05T17:47:12.277Z,100845.53
2023-04-05T17:50:01.076Z,100842.88
2023-04-05T17:52:49.903Z,100844.28
2023-04-05T17:55:38.953Z,100845.66
2023-04-05T17:58:30.341Z,100853.50
2023-04-05T18:01:19.113Z,100851.38
2023-04-05T18:04:10.241Z,100853.41
2023-04-05T18:07:01.345Z,100856.19
2023-04-05T18:09:50.305Z,100857.38
2023-04-05T18:12:39.063Z,100849.66
2023-04-05T18:15:29.274Z,100869.94
2023-04-05T18:18:18.029Z,100864.78
2023-04-05T18:21:06.841Z,100868.00
2023-04-05T18:23:56.488Z,100872.59
2023-04-05T18:26:45.355Z,100881.00
2023-04-05T18:29:37.998Z,100877.66
2023-04-05T18:32:28.496Z,100882.00
2023-04-05T18:35:17.583Z,100880.16
2023-04-05T18:38:06.690Z,100884.03
2023-04-05T18:41:03.394Z,100887.78
2023-04-05T18:43:54.560Z,100888.19
2023-04-05T18:46:44.205Z,100889.03
2023-04-05T18:49:37.027Z,100888.09
2023-04-05T18:52:27.399Z,100891.78
2023-04-05T18:55:16.623Z,100895.84
2023-04-05T18:58:05.521Z,100896.50
2023-04-05T19:00:54.466Z,100898.78
2023-04-05T19:03:43.496Z,100896.38
2023-04-05T19:06:34.736Z,100894.28
2023-04-05T19:09:23.564Z,100893.81
2023-04-05T19:12:15.356Z,100895.09
2023-04-05T19:15:05.200Z,100902.09
2023-04-05T19:17:54.021Z,100899.78
2023-04-05T19:20:42.985Z,100901.38
2023-04-05T19:23:33.336Z,100899.88
2023-04-05T19:26:22.639Z,100898.88
2023-04-05T19:29:11.823Z,100914.72
2023-04-05T19:32:00.802Z,100899.50
2023-04-05T19:34:49.617Z,100907.81
2023-04-05T19:37:38.572Z,100907.91
2023-04-05T19:40:32.097Z,100909.47
2023-04-05T19:43:20.945Z,100913.41
2023-04-05T19:46:13.493Z,100918.56
2023-04-05T19:49:08.728Z,100909.63
2023-04-05T19:52:02.951Z,100914.88
2023-04-05T19:54:52.824Z,100911.81
2023-04-05T19:57:43.023Z,100919.19
2023-04-05T20:00:33.738Z,100912.44
2023-04-05T20:03:30.215Z,100915.66
2023-04-05T20:06:22.105Z,100910.19
2023-04-05T20:09:11.531Z,100910.94
2023-04-05T20:12:01.549Z,100906.63
2023-04-05T20:14:52.117Z,100911.56
2023-04-05T20:17:43.657Z,100903.47
2023-04-05T20:20:32.750Z,100896.56
2023-04-05T20:23:22.819Z,100903.31
2023-04-05T20:26:14.295Z,100901.38
2023-04-05T20:29:03.960Z,100890.69
2023-04-05T20:31:54.420Z,100897.06
2023-04-05T20:34:46.211Z,100896.03
2023-04-05T20:37:35.185Z,100886.00
2023-04-05T20:40:23.998Z,100887.09
2023-04-05T20:43:12.756Z,100889.28
2023-04-05T20:46:02.674Z,100883.34
2023-04-05T20:48:55.712Z,100883.75
2023-04-05T20:51:44.873Z,100877.09
2023-04-05T20:54:34.910Z,100873.47
2023-04-05T20:57:23.951Z,100878.00
2023-04-05T21:00:14.569Z,100877.53
2023-04-05T21:03:03.384Z,100870.84
2023-04-05T21:05:53.749Z,100877.47
2023-04-05T21:08:43.774Z,100871.09
2023-04-05T21:11:32.837Z,100869.31
2023-04-05T21:14:21.586Z,100873.50
2023-04-05T21:17:10.314Z,100882.44
2023-04-05T21:19:59.253Z,100872.66
2023-04-05T21:22:49.428Z,100876.59
2023-04-05T21:25:38.714Z,100873.19
2023-04-05T21:28:28.436Z,100868.69
2023-04-05T21:31:17.246Z,100875.38
2023-04-05T21:34:06.093Z,100874.53
2023-04-05T21:36:54.934Z,100873.66
2023-04-05T21:39:45.370Z,100861.69
2023-04-05T21:42:34.137Z,100873.00
2023-04-05T21:45:23.128Z,100862.19
2023-04-05T21:48:11.883Z,100868.31
2023-04-05T21:51:00.647Z,100864.50
2023-04-05T21:53:49.449Z,100864.31
2023-04-05T21:56:39.711Z,100864.06
2023-04-05T21:59:28.540Z,100861.69
2023-04-05T22:02:17.482Z,100855.25
2023-04-05T22:05:07.026Z,100855.31
2023-04-05T22:07:55.917Z,100854.50
2023-04-05T22:10:45.010Z,100845.84
2023-04-05T22:13:35.487Z,100853.75
2023-04-05T22:16:24.326Z,100852.09
2023-04-05T22:19:13.384Z,100851.38
2023-04-05T22:22:02.272Z,100844.94
2023-04-05T22:24:51.110Z,100852.09
2023-04-05T22:27:39.940Z,100846.50
2023-04-05T22:30:40.957Z,100854.50
2023-04-05T22:33:32.328Z,100851.09
2023-04-05T22:36:21.363Z,100849.81
2023-04-05T22:39:10.572Z,100854.69
2023-04-05T22:41:59.524Z,100848.53
2023-04-05T22:44:48.371Z,100850.53
2023-04-05T22:47:38.622Z,100844.41
2023-04-05T22:50:27.447Z,100849.72
2023-04-05T22:53:16.229Z,100850.53
2023-04-05T22:56:04.966Z,100857.28
2023-04-05T22:58:53.713Z,100847.56
2023-04-05T23:01:42.527Z,100847.50
2023-04-05T23:04:32.876Z,100845.41
2023-04-05T23:07:21.643Z,100838.28
2023-04-05T23:10:11.568Z,100843.09
2023-04-05T23:13:00.442Z,100846.13
2023-04-05T23:15:49.286Z,100843.38
2023-04-05T23:18:38.115Z,100843.63
2023-04-05T23:21:28.525Z,100846.50
2023-04-05T23:24:17.258Z,100837.88
2023-04-05T23:27:06.423Z,100838.22
2023-04-05T23:29:55.259Z,100841.91
2023-04-05T23:32:44.033Z,100840.25
2023-04-05T23:35:32.914Z,100844.84
2023-04-05T23:38:23.046Z,100843.63
2023-04-05T23:41:11.762Z,100844.22
2023-04-05T23:44:01.438Z,100840.53
2023-04-05T23:46:50.385Z,100852.66
2023-04-05T23:49:39.232Z,100838.69
2023-04-05T23:52:28.007Z,100847.25
2023-04-05T23:55:18.580Z,100841.97
2023-04-05T23:58:07.594Z,100840.06
